createdAt,value
2022-11-25T00:00:36.470Z,7.50
2022-11-25T00:01:36.451Z,7.40
2022-11-25T00:02:36.559Z,7.30
2022-11-25T00:03:36.581Z,7.30
2022-11-25T00:04:36.862Z,6.70
2022-11-25T00:05:36.434Z,6.90
2022-11-25T00:06:36.396Z,6.60
2022-11-25T00:07:36.446Z,6.70
2022-11-25T00:08:36.391Z,6.20
2022-11-25T00:09:36.378Z,6.50
2022-11-25T00:10:36.394Z,6.50
2022-11-25T00:11:36.362Z,5.90
2022-11-25T00:12:36.352Z,6.20
2022-11-25T00:13:36.340Z,6.00
2022-11-25T00:14:36.679Z,5.50
2022-11-25T00:15:36.352Z,5.90
2022-11-25T00:16:36.352Z,5.80
2022-11-25T00:17:36.312Z,5.70
2022-11-25T00:18:36.295Z,5.50
2022-11-25T00:19:36.284Z,5.80
2022-11-25T00:20:36.305Z,5.40
2022-11-25T00:21:36.271Z,5.60
2022-11-25T00:22:36.276Z,5.90
2022-11-25T00:23:36.304Z,5.40
2022-11-25T00:24:36.468Z,5.70
2022-11-25T00:25:36.229Z,6.20
2022-11-25T00:26:36.240Z,6.00
2022-11-25T00:27:36.215Z,5.90
2022-11-25T00:28:36.213Z,6.10
2022-11-25T00:29:36.199Z,5.80
2022-11-25T00:30:36.194Z,5.20
2022-11-25T00:31:36.243Z,5.80
2022-11-25T00:32:36.173Z,6.30
2022-11-25T00:33:36.159Z,5.90
2022-11-25T00:34:36.473Z,5.70
2022-11-25T00:35:36.151Z,6.00
2022-11-25T00:36:36.199Z,6.20
2022-11-25T00:37:36.131Z,6.10
2022-11-25T00:38:36.105Z,6.40
2022-11-25T00:39:36.100Z,6.30
2022-11-25T00:40:36.099Z,6.10
2022-11-25T00:41:36.106Z,6.40
2022-11-25T00:42:36.069Z,6.40
2022-11-25T00:43:36.070Z,5.90
2022-11-25T00:44:36.979Z,6.90
2022-11-25T00:45:36.080Z,7.20
2022-11-25T00:46:36.064Z,6.90
2022-11-25T00:47:36.035Z,7.20
2022-11-25T00:48:36.021Z,6.90
2022-11-25T00:49:36.014Z,6.40
2022-11-25T00:50:35.998Z,6.20
2022-11-25T00:51:36.014Z,6.20
2022-11-25T00:52:35.987Z,6.50
2022-11-25T00:53:35.976Z,6.70
2022-11-25T00:54:36.188Z,6.60
2022-11-25T00:55:35.959Z,6.30
2022-11-25T00:56:35.965Z,6.50
2022-11-25T00:57:35.941Z,6.30
2022-11-25T00:58:35.930Z,6.80
2022-11-25T00:59:35.916Z,6.20
2022-11-25T01:00:35.910Z,6.70
2022-11-25T01:01:35.988Z,6.50
2022-11-25T01:02:35.955Z,6.40
2022-11-25T01:03:35.880Z,6.60
2022-11-25T01:04:36.175Z,6.80
2022-11-25T01:05:35.864Z,6.70
2022-11-25T01:06:35.863Z,6.80
2022-11-25T01:07:35.873Z,6.60
2022-11-25T01:08:35.835Z,6.70
2022-11-25T01:09:35.829Z,6.40
2022-11-25T01:10:35.815Z,6.30
2022-11-25T01:11:36.824Z,7.10
2022-11-25T01:12:35.791Z,6.80
2022-11-25T01:13:35.799Z,6.40
2022-11-25T01:14:36.199Z,6.50
2022-11-25T01:15:35.768Z,6.50
2022-11-25T01:16:35.823Z,6.60
2022-11-25T01:17:35.737Z,6.70
2022-11-25T01:18:35.742Z,7.10
2022-11-25T01:19:35.731Z,6.80
2022-11-25T01:20:35.714Z,6.60
2022-11-25T01:21:35.725Z,6.50
2022-11-25T01:22:35.693Z,6.30
2022-11-25T01:23:36.691Z,6.40
2022-11-25T01:24:35.998Z,6.50
2022-11-25T01:25:35.673Z,6.30
2022-11-25T01:26:35.679Z,6.40
2022-11-25T01:27:35.654Z,6.30
2022-11-25T01:28:35.670Z,6.50
2022-11-25T01:29:35.633Z,6.40
2022-11-25T01:30:40.893Z,6.40
2022-11-25T01:31:37.678Z,6.50
2022-11-25T01:32:35.601Z,6.70
2022-11-25T01:33:35.595Z,6.50
2022-11-25T01:34:35.956Z,6.60
2022-11-25T01:35:35.581Z,6.80
2022-11-25T01:36:35.582Z,6.70
2022-11-25T01:37:35.552Z,6.50
2022-11-25T01:38:35.541Z,6.70
2022-11-25T01:39:35.535Z,7.50
2022-11-25T01:40:35.526Z,7.20
2022-11-25T01:41:35.541Z,7.10
2022-11-25T01:42:35.502Z,6.70
2022-11-25T01:43:35.494Z,6.80
2022-11-25T01:44:35.835Z,7.10
2022-11-25T01:45:35.533Z,6.90
2022-11-25T01:46:35.493Z,7.30
2022-11-25T01:47:35.460Z,6.80
2022-11-25T01:48:35.449Z,7.00
2022-11-25T01:49:35.442Z,7.30
2022-11-25T01:50:35.429Z,7.30
2022-11-25T01:51:35.444Z,7.20
2022-11-25T01:52:35.408Z,7.10
2022-11-25T01:53:35.397Z,7.10
2022-11-25T01:54:35.617Z,7.50
2022-11-25T01:55:35.399Z,7.50
2022-11-25T01:56:35.389Z,7.50
2022-11-25T01:57:35.363Z,7.80
2022-11-25T01:58:35.355Z,7.60
2022-11-25T01:59:35.343Z,7.60
2022-11-25T02:00:35.330Z,7.70
2022-11-25T02:01:35.416Z,8.10
2022-11-25T02:02:35.330Z,8.20
2022-11-25T02:03:35.306Z,7.30
2022-11-25T02:04:35.594Z,7.50
2022-11-25T02:05:35.277Z,7.90
2022-11-25T02:06:35.292Z,7.80
2022-11-25T02:07:35.317Z,8.00
2022-11-25T02:08:35.254Z,8.00
2022-11-25T02:09:35.241Z,7.70
2022-11-25T02:10:35.235Z,7.90
2022-11-25T02:11:35.246Z,7.20
2022-11-25T02:12:35.222Z,8.20
2022-11-25T02:13:35.221Z,8.30
2022-11-25T02:14:35.415Z,7.90
2022-11-25T02:15:35.211Z,8.10
2022-11-25T02:16:35.345Z,7.80
2022-11-25T02:17:35.178Z,7.60
2022-11-25T02:18:35.187Z,7.30
2022-11-25T02:19:35.151Z,7.80
2022-11-25T02:20:35.213Z,7.70
2022-11-25T02:21:35.159Z,8.00
2022-11-25T02:22:35.195Z,8.30
2022-11-25T02:23:35.121Z,7.90
2022-11-25T02:24:35.483Z,8.30
2022-11-25T02:25:35.107Z,8.60
2022-11-25T02:26:35.113Z,8.10
2022-11-25T02:27:35.084Z,8.60
2022-11-25T02:28:35.065Z,8.20
2022-11-25T02:29:35.073Z,8.00
2022-11-25T02:30:35.063Z,8.10
2022-11-25T02:31:35.123Z,7.60
2022-11-25T02:32:35.036Z,7.80
2022-11-25T02:33:35.034Z,8.40
2022-11-25T02:34:35.219Z,7.50
2022-11-25T02:35:35.018Z,8.00
2022-11-25T02:36:35.068Z,7.80
2022-11-25T02:37:34.996Z,8.20
2022-11-25T02:38:34.992Z,7.30
2022-11-25T02:39:34.974Z,7.50
2022-11-25T02:40:34.978Z,7.70
2022-11-25T02:41:34.980Z,7.60
2022-11-25T02:42:34.953Z,7.90
2022-11-25T02:43:34.949Z,8.20
2022-11-25T02:44:35.134Z,8.20
2022-11-25T02:45:35.020Z,7.70
2022-11-25T02:46:34.927Z,7.60
2022-11-25T02:47:35.921Z,7.30
2022-11-25T02:49:06.692Z,7.80
2022-11-25T02:49:36.890Z,8.10
2022-11-25T02:50:34.878Z,7.90
2022-11-25T02:51:34.895Z,8.20
2022-11-25T02:52:34.857Z,7.60
2022-11-25T02:53:34.861Z,7.80
2022-11-25T02:54:36.053Z,8.40
2022-11-25T02:55:34.846Z,8.30
2022-11-25T02:56:34.844Z,8.60
2022-11-25T02:57:34.816Z,8.70
2022-11-25T02:58:34.810Z,9.20
2022-11-25T02:59:34.801Z,9.00
2022-11-25T03:00:34.786Z,9.40
2022-11-25T03:01:34.856Z,9.30
2022-11-25T03:02:34.849Z,9.30
2022-11-25T03:03:34.762Z,10.00
2022-11-25T03:04:35.002Z,9.60
2022-11-25T03:05:34.747Z,8.90
2022-11-25T03:06:34.763Z,9.60
2022-11-25T03:07:34.783Z,9.20
2022-11-25T03:08:34.721Z,9.20
2022-11-25T03:09:34.719Z,9.60
2022-11-25T03:10:34.716Z,9.40
2022-11-25T03:11:34.740Z,10.00
2022-11-25T03:12:34.689Z,9.70
2022-11-25T03:13:34.686Z,9.80
2022-11-25T03:14:34.913Z,10.00
2022-11-25T03:15:34.665Z,10.00
2022-11-25T03:16:34.733Z,11.00
2022-11-25T03:17:34.650Z,11.20
2022-11-25T03:18:34.641Z,10.30
2022-11-25T03:19:34.634Z,10.20
2022-11-25T03:20:34.626Z,10.70
2022-11-25T03:21:34.636Z,10.70
2022-11-25T03:22:34.608Z,10.50
2022-11-25T03:23:34.601Z,10.20
2022-11-25T03:24:34.906Z,9.90
2022-11-25T03:25:34.588Z,9.90
2022-11-25T03:26:34.613Z,10.60
2022-11-25T03:27:34.575Z,9.80
2022-11-25T03:28:34.553Z,9.70
2022-11-25T03:29:34.557Z,9.60
2022-11-25T03:30:34.537Z,9.60
2022-11-25T03:31:34.588Z,9.70
2022-11-25T03:32:34.516Z,9.40
2022-11-25T03:33:34.515Z,9.00
2022-11-25T03:34:34.717Z,9.40
2022-11-25T03:35:34.501Z,8.60
2022-11-25T03:36:34.550Z,8.60
2022-11-25T03:37:34.509Z,8.80
2022-11-25T03:38:34.477Z,8.50
2022-11-25T03:39:34.466Z,8.50
2022-11-25T03:40:34.460Z,8.60
2022-11-25T03:41:34.474Z,9.20
2022-11-25T03:42:34.445Z,8.20
2022-11-25T03:43:34.451Z,8.90
2022-11-25T03:44:34.848Z,8.40
2022-11-25T03:45:34.453Z,7.80
2022-11-25T03:46:34.429Z,8.30
2022-11-25T03:47:34.401Z,8.00
2022-11-25T03:48:34.393Z,7.70
2022-11-25T03:49:34.395Z,7.80
2022-11-25T03:50:34.374Z,8.20
2022-11-25T03:51:34.391Z,7.60
2022-11-25T03:52:34.353Z,8.30
2022-11-25T03:53:34.347Z,8.00
2022-11-25T03:54:34.620Z,7.20
2022-11-25T03:55:34.366Z,7.80
2022-11-25T03:56:34.336Z,7.40
2022-11-25T03:57:34.313Z,7.80
2022-11-25T03:58:34.307Z,8.00
2022-11-25T03:59:34.297Z,7.80
2022-11-25T04:00:34.289Z,7.90
2022-11-25T04:01:34.334Z,7.30
2022-11-25T04:02:34.314Z,8.10
2022-11-25T04:03:34.270Z,7.30
2022-11-25T04:04:34.771Z,7.50
2022-11-25T04:05:34.247Z,7.40
2022-11-25T04:06:34.266Z,7.10
2022-11-25T04:07:34.291Z,7.40
2022-11-25T04:08:34.223Z,7.50
2022-11-25T04:09:34.219Z,7.60
2022-11-25T04:10:34.203Z,7.70
2022-11-25T04:11:34.223Z,7.80
2022-11-25T04:12:34.184Z,7.40
2022-11-25T04:13:34.185Z,7.30
2022-11-25T04:14:34.745Z,7.70
2022-11-25T04:15:34.161Z,7.30
2022-11-25T04:16:34.256Z,8.00
2022-11-25T04:17:34.146Z,8.60
2022-11-25T04:18:34.153Z,8.40
2022-11-25T04:19:34.132Z,9.00
2022-11-25T04:20:34.121Z,9.70
2022-11-25T04:21:34.139Z,9.80
2022-11-25T04:22:34.110Z,9.00
2022-11-25T04:23:34.097Z,8.70
2022-11-25T04:24:34.342Z,9.00
2022-11-25T04:25:34.085Z,9.00
2022-11-25T04:26:34.074Z,8.90
2022-11-25T04:27:34.088Z,9.50
2022-11-25T04:28:34.042Z,9.20
2022-11-25T04:29:34.046Z,9.50
2022-11-25T04:30:34.120Z,9.40
2022-11-25T04:31:34.043Z,9.00
2022-11-25T04:32:34.042Z,8.80
2022-11-25T04:33:34.013Z,9.40
2022-11-25T04:34:34.390Z,8.90
2022-11-25T04:35:33.993Z,9.00
2022-11-25T04:36:33.987Z,9.10
2022-11-25T04:37:33.996Z,9.00
2022-11-25T04:38:59.866Z,8.50
2022-11-25T04:39:33.955Z,9.70
2022-11-25T04:40:33.948Z,8.70
2022-11-25T04:41:33.939Z,8.90
2022-11-25T04:42:33.943Z,8.90
2022-11-25T04:43:33.915Z,8.00
2022-11-25T04:44:34.257Z,8.20
2022-11-25T04:45:58.509Z,8.60
2022-11-25T04:46:35.957Z,8.00
2022-11-25T04:47:33.901Z,7.90
2022-11-25T04:48:33.885Z,8.10
2022-11-25T04:49:33.865Z,8.10
2022-11-25T04:50:33.853Z,8.20
2022-11-25T04:51:33.845Z,8.50
2022-11-25T04:52:33.859Z,8.00
2022-11-25T04:53:33.828Z,8.50
2022-11-25T04:54:34.068Z,8.30
2022-11-25T04:55:33.806Z,8.00
2022-11-25T04:56:33.803Z,7.80
2022-11-25T04:57:33.808Z,8.00
2022-11-25T04:58:33.778Z,7.90
2022-11-25T04:59:33.771Z,7.30
2022-11-25T05:00:33.765Z,7.30
2022-11-25T05:01:33.802Z,7.40
2022-11-25T05:02:33.816Z,7.20
2022-11-25T05:03:33.737Z,7.00
2022-11-25T05:04:34.039Z,7.40
2022-11-25T05:05:33.713Z,7.00
2022-11-25T05:06:33.702Z,7.20
2022-11-25T05:07:33.764Z,6.90
2022-11-25T05:08:33.694Z,6.40
2022-11-25T05:09:33.681Z,6.50
2022-11-25T05:10:33.673Z,6.60
2022-11-25T05:11:33.662Z,6.50
2022-11-25T05:12:33.664Z,6.70
2022-11-25T05:13:33.653Z,6.60
2022-11-25T05:14:33.886Z,6.30
2022-11-25T05:15:33.683Z,6.40
2022-11-25T05:16:33.702Z,6.90
2022-11-25T05:17:33.618Z,6.90
2022-11-25T05:18:33.620Z,6.80
2022-11-25T05:19:33.580Z,6.90
2022-11-25T05:20:33.574Z,6.90
2022-11-25T05:21:33.555Z,6.40
2022-11-25T05:22:33.575Z,6.60
2022-11-25T05:23:33.543Z,7.10
2022-11-25T05:24:33.768Z,6.80
2022-11-25T05:25:33.527Z,6.60
2022-11-25T05:26:33.514Z,7.30
2022-11-25T05:27:33.525Z,7.00
2022-11-25T05:28:33.494Z,7.20
2022-11-25T05:29:33.500Z,7.10
2022-11-25T05:30:33.529Z,7.10
2022-11-25T05:31:33.474Z,7.00
2022-11-25T05:32:33.483Z,7.10
2022-11-25T05:33:33.471Z,7.20
2022-11-25T05:34:33.911Z,7.30
2022-11-25T05:35:33.447Z,7.10
2022-11-25T05:36:33.425Z,7.10
2022-11-25T05:37:33.425Z,7.50
2022-11-25T05:38:33.404Z,7.30
2022-11-25T05:39:33.395Z,7.80
2022-11-25T05:40:33.385Z,7.40
2022-11-25T05:41:33.374Z,8.40
2022-11-25T05:42:33.383Z,8.00
2022-11-25T05:43:33.356Z,7.70
2022-11-25T05:44:33.345Z,7.70
2022-11-25T05:45:33.330Z,7.80
2022-11-25T05:46:33.488Z,7.40
2022-11-25T05:47:33.335Z,8.00
2022-11-25T05:48:33.313Z,7.80
2022-11-25T05:49:33.297Z,7.60
2022-11-25T05:50:33.291Z,8.00
2022-11-25T05:51:33.296Z,8.50
2022-11-25T05:52:33.302Z,8.30
2022-11-25T05:53:33.252Z,7.80
2022-11-25T05:54:33.321Z,8.00
2022-11-25T05:55:33.261Z,7.70
2022-11-25T05:56:33.241Z,7.80
2022-11-25T05:57:33.244Z,8.30
2022-11-25T05:58:33.241Z,7.90
2022-11-25T05:59:33.209Z,7.70
2022-11-25T06:00:33.198Z,8.20
2022-11-25T06:01:33.176Z,7.70
2022-11-25T06:02:33.359Z,7.50
2022-11-25T06:03:33.207Z,8.00
2022-11-25T06:04:33.246Z,7.90
2022-11-25T06:05:33.141Z,7.50
2022-11-25T06:06:33.132Z,7.70
2022-11-25T06:07:33.189Z,7.70
2022-11-25T06:08:33.111Z,8.10
2022-11-25T06:09:33.117Z,7.40
2022-11-25T06:10:33.097Z,7.80
2022-11-25T06:11:33.084Z,7.80
2022-11-25T06:12:33.097Z,7.60
2022-11-25T06:13:33.070Z,7.40
2022-11-25T06:14:33.346Z,7.30
2022-11-25T06:15:33.077Z,7.40
2022-11-25T06:16:33.091Z,6.90
2022-11-25T06:17:33.073Z,7.40
2022-11-25T06:18:33.016Z,7.30
2022-11-25T06:19:33.005Z,7.30
2022-11-25T06:20:32.991Z,7.60
2022-11-25T06:21:33.002Z,7.10
2022-11-25T06:22:32.985Z,7.90
2022-11-25T06:23:33.963Z,6.60
2022-11-25T06:24:32.981Z,6.90
2022-11-25T06:25:32.932Z,6.80
2022-11-25T06:26:32.927Z,7.40
2022-11-25T06:27:56.760Z,7.10
2022-11-25T06:28:34.914Z,7.10
2022-11-25T06:29:32.890Z,7.00
2022-11-25T06:30:32.884Z,7.80
2022-11-25T06:31:32.938Z,7.10
2022-11-25T06:32:36.424Z,7.50
2022-11-25T06:33:33.852Z,7.40
2022-11-25T06:34:32.950Z,7.20
2022-11-25T06:35:32.853Z,7.50
2022-11-25T06:36:32.833Z,7.20
2022-11-25T06:37:32.838Z,7.80
2022-11-25T06:38:32.804Z,8.40
2022-11-25T06:39:32.805Z,9.40
2022-11-25T06:40:32.794Z,9.90
2022-11-25T06:41:32.779Z,10.00
2022-11-25T06:42:32.773Z,11.10
2022-11-25T06:43:32.805Z,9.00
2022-11-25T06:44:32.792Z,8.50
2022-11-25T06:45:32.734Z,7.40
2022-11-25T06:46:32.800Z,7.60
2022-11-25T06:47:32.739Z,7.10
2022-11-25T06:48:32.739Z,7.50
2022-11-25T06:49:32.702Z,7.60
2022-11-25T06:50:32.814Z,8.80
2022-11-25T06:51:32.679Z,8.20
2022-11-25T06:52:32.718Z,8.20
2022-11-25T06:53:32.682Z,7.80
2022-11-25T06:54:32.682Z,8.10
2022-11-25T06:55:32.645Z,9.20
2022-11-25T06:56:32.631Z,9.70
2022-11-25T06:57:32.634Z,9.60
2022-11-25T06:58:36.549Z,10.80
2022-11-25T06:59:33.643Z,9.20
2022-11-25T07:00:32.591Z,9.30
2022-11-25T07:01:32.623Z,9.00
2022-11-25T07:02:39.775Z,9.30
2022-11-25T07:03:34.572Z,9.90
2022-11-25T07:04:33.765Z,10.20
2022-11-25T07:05:32.543Z,10.00
2022-11-25T07:06:32.535Z,10.30
2022-11-25T07:07:32.576Z,10.30
2022-11-25T07:08:34.362Z,10.40
2022-11-25T07:09:33.505Z,9.60
2022-11-25T07:10:32.496Z,9.60
2022-11-25T07:11:32.494Z,8.50
2022-11-25T07:12:32.474Z,7.80
2022-11-25T07:13:32.480Z,7.50
2022-11-25T07:14:32.464Z,7.40
2022-11-25T07:15:32.486Z,6.70
2022-11-25T07:16:32.460Z,7.70
2022-11-25T07:17:32.421Z,7.70
2022-11-25T07:18:32.435Z,7.60
2022-11-25T07:19:32.407Z,7.60
2022-11-25T07:20:32.395Z,7.20
2022-11-25T07:21:32.384Z,6.90
2022-11-25T07:22:32.382Z,7.50
2022-11-25T07:23:32.392Z,6.70
2022-11-25T07:24:32.361Z,6.60
2022-11-25T07:25:32.354Z,6.80
2022-11-25T07:26:32.344Z,6.60
2022-11-25T07:27:32.329Z,5.80
2022-11-25T07:28:32.347Z,6.00
2022-11-25T07:31:22.182Z,6.20
2022-11-25T07:31:34.693Z,5.70
2022-11-25T07:32:33.297Z,6.00
2022-11-25T07:33:32.393Z,5.40
2022-11-25T07:34:32.261Z,5.40
2022-11-25T07:35:32.254Z,5.90
2022-11-25T07:36:32.243Z,5.00
2022-11-25T07:37:32.239Z,5.30
2022-11-25T07:38:32.247Z,5.20
2022-11-25T07:39:32.208Z,5.10
2022-11-25T07:40:32.201Z,5.00
2022-11-25T07:41:32.204Z,5.00
2022-11-25T07:42:32.214Z,5.50
2022-11-25T07:43:32.203Z,5.30
2022-11-25T07:44:32.161Z,5.30
2022-11-25T07:45:32.151Z,5.80
2022-11-25T07:46:32.179Z,5.70
2022-11-25T07:47:32.145Z,6.30
2022-11-25T07:48:32.129Z,5.80
2022-11-25T07:49:32.101Z,6.30
2022-11-25T07:50:32.084Z,5.80
2022-11-25T07:51:32.082Z,5.90
2022-11-25T07:52:32.081Z,5.90
2022-11-25T07:53:32.183Z,5.80
2022-11-25T07:54:32.055Z,6.50
2022-11-25T07:55:32.040Z,6.20
2022-11-25T07:56:32.034Z,6.50
2022-11-25T07:57:32.017Z,6.10
2022-11-25T07:58:32.023Z,6.60
2022-11-25T07:59:32.002Z,6.50
2022-11-25T08:00:31.982Z,6.80
2022-11-25T08:01:32.067Z,6.80
2022-11-25T08:02:32.056Z,6.30
2022-11-25T08:03:31.974Z,6.30
2022-11-25T08:04:31.980Z,6.30
2022-11-25T08:05:31.932Z,6.20
2022-11-25T08:06:31.962Z,6.20
2022-11-25T08:07:36.303Z,6.30
2022-11-25T08:08:32.924Z,6.20
2022-11-25T08:09:31.899Z,6.10
2022-11-25T08:10:31.878Z,5.70
2022-11-25T08:11:31.864Z,5.40
2022-11-25T08:12:31.851Z,5.80
2022-11-25T08:13:31.859Z,5.90
2022-11-25T08:14:31.830Z,6.00
2022-11-25T08:15:31.841Z,6.00
2022-11-25T08:16:31.914Z,5.70
2022-11-25T08:17:31.800Z,5.80
2022-11-25T08:18:31.805Z,5.90
2022-11-25T08:19:31.783Z,5.70
2022-11-25T08:20:31.755Z,6.00
2022-11-25T08:21:31.768Z,5.70
2022-11-25T08:22:32.755Z,5.30
2022-11-25T08:23:31.757Z,5.30
2022-11-25T08:24:31.723Z,5.40
2022-11-25T08:25:31.714Z,5.40
2022-11-25T08:26:31.707Z,5.30
2022-11-25T08:27:31.684Z,5.20
2022-11-25T08:28:31.699Z,5.00
2022-11-25T08:29:31.670Z,4.80
2022-11-25T08:30:31.687Z,4.90
2022-11-25T08:31:31.730Z,5.00
2022-11-25T08:32:31.637Z,5.00
2022-11-25T08:33:31.638Z,4.70
2022-11-25T08:34:31.616Z,4.60
2022-11-25T08:35:31.607Z,4.80
2022-11-25T08:36:31.579Z,5.10
2022-11-25T08:37:31.599Z,5.00
2022-11-25T08:38:31.586Z,4.80
2022-11-25T08:40:33.549Z,4.50
2022-11-25T08:41:31.531Z,4.70
2022-11-25T08:42:31.518Z,4.80
2022-11-25T08:43:31.526Z,4.60
2022-11-25T08:44:31.487Z,5.60
2022-11-25T08:45:31.491Z,4.90
2022-11-25T08:46:31.526Z,4.90
2022-11-25T08:47:31.469Z,5.10
2022-11-25T08:48:31.465Z,4.90
2022-11-25T08:49:34.995Z,5.30
2022-11-25T08:50:33.429Z,4.90
2022-11-25T08:51:31.509Z,4.50
2022-11-25T08:52:31.405Z,5.10
2022-11-25T08:53:31.417Z,5.10
2022-11-25T08:54:31.391Z,5.00
2022-11-25T08:55:31.383Z,5.00
2022-11-25T08:56:31.372Z,5.10
2022-11-25T08:57:31.358Z,5.00
2022-11-25T08:58:31.367Z,4.60
2022-11-25T08:59:31.332Z,4.70
2022-11-25T09:00:31.324Z,5.10
2022-11-25T09:01:31.381Z,5.20
2022-11-25T09:02:31.364Z,5.80
2022-11-25T09:03:31.331Z,7.80
2022-11-25T09:04:31.277Z,8.20
2022-11-25T09:05:31.267Z,6.90
2022-11-25T09:06:31.256Z,6.30
2022-11-25T09:07:31.333Z,5.80
2022-11-25T09:08:32.251Z,5.10
2022-11-25T09:09:31.224Z,5.20
2022-11-25T09:10:31.217Z,4.80
2022-11-25T09:11:31.286Z,4.70
2022-11-25T09:12:31.201Z,4.60
2022-11-25T09:13:31.223Z,4.60
2022-11-25T09:14:31.238Z,4.90
2022-11-25T09:15:31.714Z,5.10
2022-11-25T09:16:31.170Z,4.80
2022-11-25T09:17:31.128Z,4.40
2022-11-25T09:18:31.143Z,4.50
2022-11-25T09:19:31.114Z,4.60
2022-11-25T09:20:31.091Z,4.50
2022-11-25T09:21:31.078Z,4.20
2022-11-25T09:22:31.071Z,4.40
2022-11-25T09:23:31.089Z,4.60
2022-11-25T09:24:31.051Z,4.30
2022-11-25T09:25:31.031Z,4.90
2022-11-25T09:26:31.039Z,4.10
2022-11-25T09:27:31.011Z,4.10
2022-11-25T09:28:31.023Z,4.30
2022-11-25T09:29:30.992Z,4.30
2022-11-25T09:30:30.998Z,4.80
2022-11-25T09:31:31.009Z,4.80
2022-11-25T09:32:30.950Z,4.50
2022-11-25T09:33:30.963Z,4.20
2022-11-25T09:34:30.940Z,4.10
2022-11-25T09:35:30.929Z,3.80
2022-11-25T09:36:30.950Z,4.00
2022-11-25T09:37:30.903Z,3.80
2022-11-25T09:38:30.976Z,4.20
2022-11-25T09:39:30.895Z,3.80
2022-11-25T09:40:30.895Z,4.10
2022-11-25T09:41:30.859Z,3.70
2022-11-25T09:42:30.842Z,3.80
2022-11-25T09:43:31.870Z,3.80
2022-11-25T09:44:30.824Z,3.70
2022-11-25T09:45:30.819Z,4.10
2022-11-25T09:46:30.857Z,4.10
2022-11-25T09:47:30.782Z,4.10
2022-11-25T09:48:30.797Z,3.90
2022-11-25T09:49:30.765Z,4.50
2022-11-25T09:50:30.760Z,4.00
2022-11-25T09:51:30.771Z,4.20
2022-11-25T09:52:30.738Z,4.20
2022-11-25T09:53:30.824Z,4.30
2022-11-25T09:54:30.719Z,4.40
2022-11-25T09:55:30.728Z,4.80
2022-11-25T09:56:30.698Z,4.40
2022-11-25T09:57:30.705Z,4.60
2022-11-25T09:58:30.689Z,4.60
2022-11-25T09:59:30.691Z,5.20
2022-11-25T10:00:30.657Z,5.10
2022-11-25T10:01:30.696Z,5.40
2022-11-25T10:02:30.788Z,5.50
2022-11-25T10:03:30.687Z,6.20
2022-11-25T10:04:30.615Z,5.80
2022-11-25T10:05:30.594Z,5.50
2022-11-25T10:06:30.649Z,5.40
2022-11-25T10:07:30.571Z,5.80
2022-11-25T10:08:30.566Z,6.00
2022-11-25T10:09:30.577Z,5.50
2022-11-25T10:10:30.544Z,5.70
2022-11-25T10:11:30.577Z,5.90
2022-11-25T10:12:30.527Z,5.70
2022-11-25T10:13:30.513Z,5.90
2022-11-25T10:14:30.539Z,6.00
2022-11-25T10:15:30.515Z,5.50
2022-11-25T10:16:30.561Z,5.90
2022-11-25T10:17:30.471Z,5.80
2022-11-25T10:18:30.459Z,5.60
2022-11-25T10:19:30.518Z,5.60
2022-11-25T10:20:30.444Z,5.40
2022-11-25T10:21:30.428Z,5.60
2022-11-25T10:22:30.418Z,5.40
2022-11-25T10:23:30.419Z,5.20
2022-11-25T10:24:30.421Z,5.80
2022-11-25T10:25:30.397Z,5.50
2022-11-25T10:26:30.380Z,5.50
2022-11-25T10:27:30.374Z,5.90
2022-11-25T10:28:30.366Z,5.40
2022-11-25T10:29:30.399Z,5.70
2022-11-25T10:30:30.354Z,5.40
2022-11-25T10:31:30.427Z,5.50
2022-11-25T10:32:30.324Z,6.20
2022-11-25T10:33:30.319Z,5.90
2022-11-25T10:34:30.329Z,6.10
2022-11-25T10:35:30.284Z,6.30
2022-11-25T10:36:30.276Z,6.30
2022-11-25T10:37:30.286Z,6.20
2022-11-25T10:38:49.174Z,6.10
2022-11-25T10:39:30.252Z,6.00
2022-11-25T10:40:30.244Z,5.50
2022-11-25T10:41:30.229Z,5.70
2022-11-25T10:42:30.208Z,5.80
2022-11-25T10:43:31.860Z,5.80
2022-11-25T10:44:31.219Z,5.50
2022-11-25T10:45:30.229Z,5.50
2022-11-25T10:46:49.676Z,5.50
2022-11-25T10:47:32.196Z,5.50
2022-11-25T10:48:30.156Z,5.50
2022-11-25T10:49:30.167Z,5.60
2022-11-25T10:50:30.138Z,5.40
2022-11-25T10:51:30.120Z,5.50
2022-11-25T10:52:30.111Z,5.60
2022-11-25T10:53:30.111Z,5.20
2022-11-25T10:54:30.108Z,5.90
2022-11-25T10:55:30.084Z,5.90
2022-11-25T10:56:30.070Z,5.70
2022-11-25T10:57:30.071Z,5.80
2022-11-25T10:58:30.046Z,5.70
2022-11-25T10:59:30.063Z,6.20
2022-11-25T11:00:30.025Z,6.30
2022-11-25T11:01:30.068Z,6.30
2022-11-25T11:02:30.071Z,6.40
2022-11-25T11:03:30.002Z,6.10
2022-11-25T11:04:30.032Z,6.00
2022-11-25T11:05:29.982Z,6.30
2022-11-25T11:06:29.968Z,6.00
2022-11-25T11:07:30.009Z,6.10
2022-11-25T11:08:29.950Z,6.50
2022-11-25T11:09:29.961Z,5.80
2022-11-25T11:10:29.928Z,6.30
2022-11-25T11:11:29.916Z,6.90
2022-11-25T11:12:29.911Z,7.20
2022-11-25T11:13:29.898Z,7.40
2022-11-25T11:14:29.928Z,7.00
2022-11-25T11:15:29.882Z,6.50
2022-11-25T11:16:29.942Z,6.80
2022-11-25T11:17:34.758Z,6.40
2022-11-25T11:18:31.848Z,7.10
2022-11-25T11:19:29.866Z,6.90
2022-11-25T11:20:29.834Z,6.70
2022-11-25T11:21:29.818Z,6.50
2022-11-25T11:22:29.809Z,7.50
2022-11-25T11:23:29.808Z,6.90
2022-11-25T11:24:29.815Z,6.80
2022-11-25T11:25:29.783Z,6.50
2022-11-25T11:26:29.757Z,6.50
2022-11-25T11:27:29.764Z,6.20
2022-11-25T11:28:29.752Z,6.40
2022-11-25T11:29:29.766Z,6.70
2022-11-25T11:30:29.728Z,6.00
2022-11-25T11:31:29.789Z,6.20
2022-11-25T11:32:29.716Z,5.40
2022-11-25T11:33:29.713Z,5.10
2022-11-25T11:34:29.706Z,5.60
2022-11-25T11:35:29.696Z,5.10
2022-11-25T11:36:29.679Z,5.00
2022-11-25T11:37:29.689Z,6.00
2022-11-25T11:38:29.657Z,5.20
2022-11-25T11:39:29.661Z,5.20
2022-11-25T11:40:29.628Z,5.10
2022-11-25T11:41:29.622Z,5.30
2022-11-25T11:42:29.604Z,5.10
2022-11-25T11:43:29.605Z,5.30
2022-11-25T11:44:29.612Z,5.30
2022-11-25T11:45:29.579Z,5.10
2022-11-25T11:46:29.636Z,5.30
2022-11-25T11:47:29.562Z,5.30
2022-11-25T11:48:29.562Z,5.30
2022-11-25T11:49:30.839Z,5.20
2022-11-25T11:50:30.523Z,5.20
2022-11-25T11:51:29.532Z,5.20
2022-11-25T11:52:29.510Z,5.40
2022-11-25T11:53:29.489Z,6.20
2022-11-25T11:54:29.503Z,5.50
2022-11-25T11:55:29.482Z,5.70
2022-11-25T11:56:36.668Z,5.30
2022-11-25T11:57:31.459Z,5.80
2022-11-25T11:58:29.450Z,5.50
2022-11-25T11:59:29.457Z,5.80
2022-11-25T12:00:29.431Z,5.10
2022-11-25T12:01:29.414Z,5.30
2022-11-25T12:02:29.489Z,6.00
2022-11-25T12:03:29.475Z,5.50
2022-11-25T12:04:29.406Z,4.90
2022-11-25T12:05:29.380Z,5.20
2022-11-25T12:06:29.358Z,5.50
2022-11-25T12:07:29.374Z,5.90
2022-11-25T12:08:29.354Z,5.60
2022-11-25T12:09:29.351Z,5.10
2022-11-25T12:10:29.326Z,5.40
2022-11-25T12:11:29.314Z,5.50
2022-11-25T12:12:29.301Z,5.20
2022-11-25T12:13:29.303Z,5.50
2022-11-25T12:14:29.302Z,5.70
2022-11-25T12:15:29.268Z,5.50
2022-11-25T12:16:29.308Z,5.30
2022-11-25T12:17:29.245Z,5.30
2022-11-25T12:18:29.231Z,5.10
2022-11-25T12:19:29.267Z,5.60
2022-11-25T12:20:29.223Z,5.70
2022-11-25T12:21:29.207Z,6.00
2022-11-25T12:22:29.197Z,5.70
2022-11-25T12:23:29.190Z,5.90
2022-11-25T12:24:29.205Z,6.10
2022-11-25T12:25:29.168Z,6.10
2022-11-25T12:26:29.159Z,5.50
2022-11-25T12:27:29.149Z,5.80
2022-11-25T12:28:29.144Z,5.90
2022-11-25T12:29:29.156Z,6.00
2022-11-25T12:30:29.128Z,6.10
2022-11-25T12:31:29.193Z,5.60
2022-11-25T12:32:29.100Z,6.30
2022-11-25T12:33:29.089Z,6.10
2022-11-25T12:34:29.080Z,5.60
2022-11-25T12:35:29.087Z,6.40
2022-11-25T12:36:29.061Z,6.50
2022-11-25T12:37:29.053Z,6.60
2022-11-25T12:38:29.045Z,6.30
2022-11-25T12:39:29.030Z,7.20
2022-11-25T12:40:29.038Z,7.30
2022-11-25T12:41:29.015Z,7.00
2022-11-25T12:42:28.993Z,6.90
2022-11-25T12:43:28.990Z,7.40
2022-11-25T12:44:28.979Z,7.00
2022-11-25T12:45:29.012Z,7.00
2022-11-25T12:46:28.962Z,6.90
2022-11-25T12:47:28.961Z,7.20
2022-11-25T12:48:28.929Z,6.50
2022-11-25T12:49:29.948Z,6.70
2022-11-25T12:50:29.523Z,6.50
2022-11-25T12:51:28.904Z,7.00
2022-11-25T12:52:28.899Z,6.70
2022-11-25T12:53:28.889Z,6.70
2022-11-25T12:54:28.883Z,6.20
2022-11-25T12:55:28.886Z,6.60
2022-11-25T12:56:28.866Z,6.70
2022-11-25T12:57:28.849Z,6.90
2022-11-25T12:58:28.876Z,6.80
2022-11-25T12:59:28.830Z,6.70
2022-11-25T13:00:44.298Z,6.90
2022-11-25T13:01:30.867Z,7.30
2022-11-25T13:02:28.880Z,6.90
2022-11-25T13:03:28.795Z,7.10
2022-11-25T13:04:28.786Z,7.30
2022-11-25T13:05:43.948Z,7.10
2022-11-25T13:06:30.761Z,7.30
2022-11-25T13:07:28.817Z,6.90
2022-11-25T13:08:28.738Z,7.00
2022-11-25T13:09:28.735Z,7.20
2022-11-25T13:10:28.740Z,7.10
2022-11-25T13:11:29.024Z,7.50
2022-11-25T13:12:29.080Z,7.70
2022-11-25T13:13:29.070Z,7.90
2022-11-25T13:14:29.282Z,7.70
2022-11-25T13:15:29.016Z,8.10
2022-11-25T13:16:29.084Z,7.20
2022-11-25T13:17:28.808Z,7.50
2022-11-25T13:18:28.642Z,7.90
2022-11-25T13:19:28.637Z,7.70